Puerto Banus, Marbella

>

This is an optional block (switch it off / on) in the settings - file ($SITE['banners'] = false;)

You can display ads, any other important text or photo’s using text / html or PHP code.

You can place one or more at the top and or bottom and it can all be different for content / size .



Meteosat more information blitzortung!


Radar lluvias  rain snow radar


Visita nuestra red de sitios de meteo:

Documentation for the template used

MeteoibericaRed estaciones Meteorologicas

MeteoclimaticRed estaciones Meteorologicas



Sin Advertencias climatologicas .En este momento tenemos Nivel Verde.    No hay Alarmas

Informes METAR proximidad

   
EBAW - Antwerp
Actualización: 21-08-2018 15:20
Parcialmente Nublado  
Parcialmente Nublado  
   Viento: varía 7.4 km/h
Viento: varía 7.4 km/h
Temperatura: 25°C
Punto de rocío: 15°C
Humedad: 54%
Baromètro: 1020 hPa
Nublado: Parcialmente Nublado
Visibilidad: More than 10 km
detalles de la nube: Parcialmente Nublado 4000 ft
EBAW 211320Z VRB04KT 9999 SCT040 25/15 Q1020 NOSIG
EBLG - Liège
Actualización: 21-08-2018 15:20
Nubes dispersas  
Nubes dispersas  
   Viento: NE 5.6 km/h
Viento: NE 5.6 km/h
Temperatura: 25°C
Punto de rocío: 15°C
Humedad: 54%
Baromètro: 1020 hPa
Nublado: Nubes dispersas
Visibilidad: More than 10 km
detalles de la nube: Nubes dispersas 3500 ft
EBLG 211320Z 04003KT 350V100 9999 FEW035 25/15 Q1020 NOSIG
EBCV - Mons/Bergen
Actualización: 21-08-2018 15:25
Parcialmente nublado  
Parcialmente nublado  
   Viento: WSW 13 km/h
Viento: WSW 13 km/h
Temperatura: 25°C
Punto de rocío: 15°C
Humedad: 54%
Baromètro: 1020 hPa
Nublado: Parcialmente nublado
Visibilidad: More than 10 km
detalles de la nube: Parcialmente nublado 5600 ft
EBCV 211325Z AUTO 25007KT 9999 BKN056/// 25/15 Q1020 BLU
EHBK - Maastricht
Actualización: 21-08-2018 15:25
Parcialmente Nublado  
Parcialmente Nublado  
   Viento: NE 5.6 km/h
Viento: NE 5.6 km/h
Temperatura: 25°C
Punto de rocío: 15°C
Humedad: 54%
Baromètro: 1020 hPa
Nublado: Parcialmente Nublado
Visibilidad: More than 10 km
detalles de la nube: Parcialmente Nublado 4000 ft,
Parcialmente Nublado 4800 ft
EHBK 211325Z AUTO 05003KT 010V140 9999 SCT040 SCT048 25/15 Q1020 NOSIG
ELLX - Luxemburg
Actualización: 21-08-2018 15:20
Parcialmente Nublado  
Parcialmente Nublado  
   Viento: varía 5.6 km/h
Viento: varía 5.6 km/h
Temperatura: 27°C
Índice de calor: 27°C
Punto de rocío: 15°C
Humedad: 48%
Baromètro: 1020 hPa
Nublado: Parcialmente Nublado
Visibilidad: More than 10 km
detalles de la nube: Nubes dispersas 4600 ft,
Parcialmente Nublado 6700 ft
ELLX 211320Z VRB03KT 9999 FEW046 SCT067 27/15 Q1020 NOSIG
EBOS - Oostende
Actualización: 21-08-2018 15:20
Parcialmente Nublado  
Parcialmente Nublado  
   Viento: NNW 14.8 km/h
Viento: NNW 14.8 km/h
Temperatura: 22°C
Punto de rocío: 17°C
Humedad: 73%
Baromètro: 1020 hPa
Nublado: Parcialmente Nublado
Visibilidad: 9 km
detalles de la nube: Parcialmente Nublado 2400 ft
EBOS 211320Z 33008KT 9000 SCT024 22/17 Q1020 NOSIG

Guión original por  Saratoga-weather.org Adaptado para la plantilla por  Weerstation Leuven

Usted encontrará nuestra información del tiempo también en:

Weather Underground

Iberian Peninsula Weather Network